Grant City, Missouri
Current Conditions -  °F | °C
As of 6:53 PM on Saturday 25 Oct 2014 (Local Time) from KLWD Reporting Station
Clear Clear  
Wind Chill: 64°   Ceiling: Unl
Heat Index: 64°   Visibility: 10mi
Dew Point: 44°   Wind: 6mph
Humidity: 48%   Direction: 40°NE
Pressure: 30.05"   Gusts: NA
Location:  40.49°N, 94.41°W
Report Text: KLWD 252353Z AUTO 04005KT 10SM CLR 18/07 A3005 RMK AO2 SLP175 T01780067 10250 20178 55002
Loading
Personal Weather Stations






























Interactive Weather Map
Tropical Storm Tracking
New forecast layout! Learn more

10-Day Weather Forecast

Advertisements
Track Severe Weather on mobile